createdAt,value
2018-05-02T00:00:18.979Z,0.00
2018-05-02T00:01:18.924Z,0.00
2018-05-02T00:03:11.767Z,0.00
2018-05-02T00:04:11.740Z,0.00
2018-05-02T00:06:04.596Z,0.00
2018-05-02T00:07:04.561Z,0.00
2018-05-02T00:08:57.403Z,0.00
2018-05-02T00:09:57.377Z,0.00
2018-05-02T00:11:50.233Z,0.00
2018-05-02T00:12:50.197Z,0.00
2018-05-02T00:14:43.043Z,0.00
2018-05-02T00:15:43.013Z,0.00
2018-05-02T00:17:35.868Z,0.00
2018-05-02T00:18:35.832Z,0.00
2018-05-02T00:20:28.678Z,0.00
2018-05-02T00:21:28.651Z,0.00
2018-05-02T00:23:21.504Z,0.00
2018-05-02T00:24:21.477Z,0.00
2018-05-02T00:26:14.319Z,0.00
2018-05-02T00:27:14.291Z,0.00
2018-05-02T00:29:07.149Z,0.00
2018-05-02T00:30:07.104Z,0.00
2018-05-02T00:31:59.950Z,0.00
2018-05-02T00:32:59.929Z,0.00
2018-05-02T00:34:52.795Z,0.00
2018-05-02T00:35:52.743Z,0.00
2018-05-02T00:37:45.583Z,0.00
2018-05-02T00:38:45.560Z,0.00
2018-05-02T00:40:38.407Z,0.00
2018-05-02T00:41:38.375Z,0.00
2018-05-02T00:43:31.217Z,0.00
2018-05-02T00:44:31.192Z,0.00
2018-05-02T00:46:24.048Z,0.00
2018-05-02T00:47:24.012Z,0.00
2018-05-02T00:49:16.849Z,0.00
2018-05-02T00:50:16.827Z,0.00
2018-05-02T00:52:09.688Z,0.00
2018-05-02T00:53:09.654Z,0.00
2018-05-02T00:55:02.493Z,0.00
2018-05-02T00:56:02.466Z,0.00
2018-05-02T00:57:55.319Z,0.00
2018-05-02T00:58:55.283Z,0.00
2018-05-02T01:00:48.123Z,0.00
2018-05-02T01:01:48.099Z,0.00
2018-05-02T01:03:40.955Z,0.00
2018-05-02T01:04:40.918Z,0.00
2018-05-02T01:06:33.756Z,0.00
2018-05-02T01:07:33.732Z,0.00
2018-05-02T01:09:26.588Z,0.00
2018-05-02T01:10:26.550Z,0.00
2018-05-02T01:12:19.391Z,0.00
2018-05-02T01:13:19.366Z,0.00
2018-05-02T01:15:12.220Z,0.00
2018-05-02T01:16:12.182Z,0.00
2018-05-02T01:18:05.026Z,0.00
2018-05-02T01:19:05.001Z,0.00
2018-05-02T01:20:57.856Z,0.00
2018-05-02T01:21:57.824Z,0.00
2018-05-02T01:23:50.656Z,0.00
2018-05-02T01:24:50.632Z,0.00
2018-05-02T01:26:43.494Z,0.00
2018-05-02T01:27:43.451Z,0.00
2018-05-02T01:29:36.293Z,0.00
2018-05-02T01:30:36.268Z,0.00
2018-05-02T01:32:29.127Z,0.00
2018-05-02T01:33:29.087Z,0.00
2018-05-02T01:35:21.934Z,0.00
2018-05-02T01:36:21.910Z,0.00
2018-05-02T01:38:14.762Z,0.00
2018-05-02T01:39:14.722Z,0.00
2018-05-02T01:41:07.567Z,0.00
2018-05-02T01:42:07.572Z,0.00
2018-05-02T01:44:00.395Z,0.00
2018-05-02T01:45:00.362Z,0.00
2018-05-02T01:46:53.197Z,0.00
2018-05-02T01:47:53.172Z,0.00
2018-05-02T01:49:46.033Z,0.00
2018-05-02T01:50:45.987Z,0.00
2018-05-02T01:52:38.838Z,0.00
2018-05-02T01:53:38.809Z,0.00
2018-05-02T01:55:31.667Z,0.00
2018-05-02T01:56:31.629Z,0.00
2018-05-02T01:58:24.466Z,0.00
2018-05-02T01:59:24.442Z,0.00
2018-05-02T02:01:17.308Z,0.00
2018-05-02T02:02:17.263Z,0.00
2018-05-02T02:04:10.115Z,0.00
2018-05-02T02:05:10.087Z,0.00
2018-05-02T02:07:02.935Z,0.00
2018-05-02T02:08:02.904Z,0.00
2018-05-02T02:09:55.739Z,0.00
2018-05-02T02:10:55.714Z,0.00
2018-05-02T02:12:48.570Z,0.00
2018-05-02T02:13:48.539Z,0.00
2018-05-02T02:15:41.373Z,0.00
2018-05-02T02:16:41.349Z,0.00
2018-05-02T02:18:34.205Z,0.00
2018-05-02T02:19:34.169Z,0.00
2018-05-02T02:21:27.015Z,0.00
2018-05-02T02:22:26.991Z,0.00
2018-05-02T02:24:19.837Z,0.00
2018-05-02T02:25:19.802Z,0.00
2018-05-02T02:27:12.652Z,0.00
2018-05-02T02:28:12.621Z,0.00
2018-05-02T02:30:05.481Z,0.00
2018-05-02T02:31:05.444Z,0.00
2018-05-02T02:32:58.285Z,0.00
2018-05-02T02:33:58.373Z,0.00
2018-05-02T02:35:51.120Z,0.00
2018-05-02T02:36:51.081Z,0.00
2018-05-02T02:38:43.920Z,0.00
2018-05-02T02:39:43.895Z,0.00
2018-05-02T02:41:36.751Z,0.00
2018-05-02T02:42:36.712Z,0.00
2018-05-02T02:44:29.555Z,0.00
2018-05-02T02:45:29.554Z,0.00
2018-05-02T02:47:22.386Z,0.00
2018-05-02T02:48:22.348Z,0.00
2018-05-02T02:50:15.191Z,0.00
2018-05-02T02:51:15.159Z,0.00
2018-05-02T02:53:08.020Z,0.00
2018-05-02T02:54:07.981Z,0.00
2018-05-02T02:56:00.822Z,0.00
2018-05-02T02:57:00.800Z,0.00
2018-05-02T02:58:53.650Z,0.00
2018-05-02T02:59:53.614Z,0.00
2018-05-02T03:01:46.456Z,0.00
2018-05-02T03:02:46.430Z,0.00
2018-05-02T03:04:39.291Z,0.00
2018-05-02T03:05:39.252Z,0.00
2018-05-02T03:07:32.098Z,0.00
2018-05-02T03:08:32.070Z,0.00
2018-05-02T03:10:24.920Z,0.00
2018-05-02T03:11:24.882Z,0.00
2018-05-02T03:13:17.724Z,0.00
2018-05-02T03:14:17.701Z,0.00
2018-05-02T03:16:10.554Z,0.00
2018-05-02T03:17:10.517Z,0.00
2018-05-02T03:19:03.360Z,0.00
2018-05-02T03:20:03.338Z,0.00
2018-05-02T03:21:56.190Z,0.00
2018-05-02T03:22:56.153Z,0.00
2018-05-02T03:24:48.999Z,0.00
2018-05-02T03:25:48.973Z,0.00
2018-05-02T03:27:41.906Z,0.00
2018-05-02T03:28:41.793Z,0.00
2018-05-02T03:30:34.642Z,0.00
2018-05-02T03:31:34.618Z,0.00
2018-05-02T03:33:27.464Z,0.00
2018-05-02T03:34:27.435Z,0.00
2018-05-02T03:36:20.339Z,0.00
2018-05-02T03:37:20.255Z,4.00
2018-05-02T03:39:13.115Z,4.00
2018-05-02T03:40:13.080Z,4.00
2018-05-02T03:42:05.932Z,4.00
2018-05-02T03:43:05.904Z,8.00
2018-05-02T03:44:58.756Z,8.00
2018-05-02T03:45:58.720Z,8.00
2018-05-02T03:47:51.561Z,12.00
2018-05-02T03:48:51.541Z,16.00
2018-05-02T03:50:44.392Z,20.00
2018-05-02T03:51:44.356Z,20.00
2018-05-02T03:53:37.204Z,24.00
2018-05-02T03:54:37.184Z,28.00
2018-05-02T03:56:30.056Z,36.00
2018-05-02T03:57:30.001Z,40.00
2018-05-02T03:59:22.848Z,48.00
2018-05-02T04:00:22.822Z,52.00
2018-05-02T04:02:15.680Z,64.00
2018-05-02T04:03:15.644Z,68.00
2018-05-02T04:05:08.490Z,76.00
2018-05-02T04:06:08.464Z,80.00
2018-05-02T04:08:01.321Z,92.00
2018-05-02T04:09:01.287Z,108.00
2018-05-02T04:10:54.148Z,124.00
2018-05-02T04:11:54.132Z,136.00
2018-05-02T04:13:46.977Z,168.00
2018-05-02T04:14:46.945Z,180.00
2018-05-02T04:16:39.788Z,216.00
2018-05-02T04:17:39.765Z,232.00
2018-05-02T04:19:32.622Z,264.00
2018-05-02T04:20:32.627Z,284.00
2018-05-02T04:22:25.430Z,296.00
2018-05-02T04:23:25.407Z,308.00
2018-05-02T04:25:18.267Z,352.00
2018-05-02T04:26:18.228Z,376.00
2018-05-02T04:28:11.072Z,436.00
2018-05-02T04:29:11.048Z,464.00
2018-05-02T04:31:03.905Z,512.00
2018-05-02T04:32:03.873Z,540.00
2018-05-02T04:33:56.720Z,600.00
2018-05-02T04:34:56.697Z,636.00
2018-05-02T04:36:49.556Z,704.00
2018-05-02T04:37:49.525Z,724.00
2018-05-02T04:39:42.365Z,752.00
2018-05-02T04:40:42.345Z,768.00
2018-05-02T04:42:35.201Z,812.00
2018-05-02T04:43:35.167Z,836.00
2018-05-02T04:45:28.011Z,852.00
2018-05-02T04:46:27.988Z,848.00
2018-05-02T04:48:20.845Z,852.00
2018-05-02T04:49:20.814Z,856.00
2018-05-02T04:51:13.660Z,896.00
2018-05-02T04:52:13.638Z,924.00
2018-05-02T04:54:06.497Z,1000.00
2018-05-02T04:55:06.461Z,1052.00
2018-05-02T04:56:59.315Z,1204.00
2018-05-02T04:57:59.288Z,1280.00
2018-05-02T04:59:52.158Z,1384.00
2018-05-02T05:00:52.110Z,1436.00
2018-05-02T05:02:44.956Z,1592.00
2018-05-02T05:03:44.935Z,1688.00
2018-05-02T05:05:37.836Z,1872.00
2018-05-02T05:06:37.767Z,2004.00
2018-05-02T05:08:30.606Z,2336.00
2018-05-02T05:09:30.577Z,2452.00
2018-05-02T05:11:23.441Z,2552.00
2018-05-02T05:12:23.410Z,2548.00
2018-05-02T05:14:16.248Z,2516.00
2018-05-02T05:15:16.225Z,2572.00
2018-05-02T05:17:09.090Z,2836.00
2018-05-02T05:18:09.054Z,2968.00
2018-05-02T05:20:01.900Z,3112.00
2018-05-02T05:21:01.881Z,3188.00
2018-05-02T05:22:54.734Z,3252.00
2018-05-02T05:23:54.701Z,3224.00
2018-05-02T05:25:47.546Z,3248.00
2018-05-02T05:26:47.525Z,3340.00
2018-05-02T05:28:40.383Z,3524.00
2018-05-02T05:29:40.347Z,3512.00
2018-05-02T05:31:33.195Z,3352.00
2018-05-02T05:32:33.174Z,3232.00
2018-05-02T05:34:26.031Z,3360.00
2018-05-02T05:35:26.006Z,3632.00
2018-05-02T05:37:18.853Z,4148.00
2018-05-02T05:38:18.830Z,4368.00
2018-05-02T05:40:11.686Z,4844.00
2018-05-02T05:41:11.651Z,5036.00
2018-05-02T05:43:04.506Z,5388.00
2018-05-02T05:44:04.475Z,5592.00
2018-05-02T05:45:58.339Z,5928.00
2018-05-02T05:46:58.300Z,6280.00
2018-05-02T05:48:51.151Z,6860.00
2018-05-02T05:49:51.127Z,7124.00
2018-05-02T05:51:43.983Z,7348.00
2018-05-02T05:52:43.954Z,7800.00
2018-05-02T05:54:36.804Z,8360.00
2018-05-02T05:55:36.782Z,7520.00
2018-05-02T05:57:29.644Z,7064.00
2018-05-02T05:58:29.609Z,7348.00
2018-05-02T06:00:22.456Z,8864.00
2018-05-02T06:01:22.435Z,10332.00
2018-05-02T06:03:15.299Z,9688.00
2018-05-02T06:04:15.265Z,9160.00
2018-05-02T06:06:08.191Z,8576.00
2018-05-02T06:07:08.091Z,8908.00
2018-05-02T06:09:00.950Z,9308.00
2018-05-02T06:10:00.920Z,9664.00
2018-05-02T06:11:53.774Z,10764.00
2018-05-02T06:12:53.751Z,11088.00
2018-05-02T06:14:46.616Z,11668.00
2018-05-02T06:15:46.582Z,11968.00
2018-05-02T06:17:39.432Z,13312.00
2018-05-02T06:18:39.497Z,15840.00
2018-05-02T06:20:32.279Z,16992.00
2018-05-02T06:21:32.246Z,24320.00
2018-05-02T06:23:25.172Z,15348.00
2018-05-02T06:24:25.077Z,20928.00
2018-05-02T06:26:18.011Z,17568.00
2018-05-02T06:27:17.912Z,17312.00
2018-05-02T06:29:10.763Z,15544.00
2018-05-02T06:30:10.747Z,15096.00
2018-05-02T06:32:03.614Z,15740.00
2018-05-02T06:33:03.578Z,13880.00
2018-05-02T06:34:56.433Z,15788.00
2018-05-02T06:35:56.413Z,12848.00
2018-05-02T06:37:49.310Z,13024.00
2018-05-02T06:38:49.253Z,13868.00
2018-05-02T06:40:42.106Z,12964.00
2018-05-02T06:41:42.088Z,13136.00
2018-05-02T06:43:34.965Z,12724.00
2018-05-02T06:44:34.922Z,13428.00
2018-05-02T06:46:27.771Z,12020.00
2018-05-02T06:47:27.753Z,12588.00
2018-05-02T06:49:20.698Z,10492.00
2018-05-02T06:50:20.593Z,10908.00
2018-05-02T06:52:13.441Z,11796.00
2018-05-02T06:53:13.427Z,11484.00
2018-05-02T06:55:06.290Z,12960.00
2018-05-02T06:56:06.260Z,13480.00
2018-05-02T06:57:59.119Z,12760.00
2018-05-02T06:58:59.098Z,12456.00
2018-05-02T07:00:52.053Z,14260.00
2018-05-02T07:01:51.935Z,13788.00
2018-05-02T07:03:44.790Z,13588.00
2018-05-02T07:04:44.771Z,13860.00
2018-05-02T07:06:37.639Z,18464.00
2018-05-02T07:07:37.607Z,18816.00
2018-05-02T07:09:30.462Z,27360.00
2018-05-02T07:10:30.442Z,31360.00
2018-05-02T07:12:23.307Z,25504.00
2018-05-02T07:13:23.286Z,18720.00
2018-05-02T07:15:16.139Z,19552.00
2018-05-02T07:16:16.120Z,19744.00
2018-05-02T07:18:08.995Z,17312.00
2018-05-02T07:19:08.966Z,17472.00
2018-05-02T07:21:01.839Z,18784.00
2018-05-02T07:22:01.817Z,17920.00
2018-05-02T07:23:54.686Z,20544.00
2018-05-02T07:24:54.656Z,19424.00
2018-05-02T07:26:47.525Z,21632.00
2018-05-02T07:27:47.504Z,24800.00
2018-05-02T07:29:40.367Z,22528.00
2018-05-02T07:30:40.344Z,24800.00
2018-05-02T07:32:33.343Z,28160.00
2018-05-02T07:33:33.185Z,28096.00
2018-05-02T07:35:26.056Z,24096.00
2018-05-02T07:36:26.026Z,24960.00
2018-05-02T07:38:18.883Z,25152.00
2018-05-02T07:39:18.871Z,22464.00
2018-05-02T07:41:11.743Z,24928.00
2018-05-02T07:42:11.737Z,22080.00
2018-05-02T07:44:04.571Z,20768.00
2018-05-02T07:45:04.556Z,22176.00
2018-05-02T07:46:57.420Z,20096.00
2018-05-02T07:47:57.398Z,22688.00
2018-05-02T07:49:50.261Z,29856.00
2018-05-02T07:50:50.244Z,27552.00
2018-05-02T07:52:43.117Z,28224.00
2018-05-02T07:53:43.092Z,27488.00
2018-05-02T07:55:35.953Z,27648.00
2018-05-02T07:56:36.017Z,27168.00
2018-05-02T07:58:28.811Z,26368.00
2018-05-02T07:59:28.784Z,34656.00
2018-05-02T08:01:21.647Z,40512.00
2018-05-02T08:02:21.631Z,35904.00
2018-05-02T08:04:14.506Z,24704.00
2018-05-02T08:05:14.478Z,25152.00
2018-05-02T08:07:07.337Z,29568.00
2018-05-02T08:08:07.323Z,33184.00
2018-05-02T08:10:00.203Z,26752.00
2018-05-02T08:11:00.255Z,24576.00
2018-05-02T08:12:53.040Z,30144.00
2018-05-02T08:13:53.022Z,32096.00
2018-05-02T08:15:45.898Z,22848.00
2018-05-02T08:16:45.875Z,22176.00
2018-05-02T08:18:38.744Z,25792.00
2018-05-02T08:19:38.727Z,29696.00
2018-05-02T08:21:31.607Z,25760.00
2018-05-02T08:22:31.581Z,28096.00
2018-05-02T08:24:24.446Z,26368.00
2018-05-02T08:25:24.427Z,28960.00
2018-05-02T08:27:17.314Z,29792.00
2018-05-02T08:28:17.283Z,27552.00
2018-05-02T08:30:10.151Z,24736.00
2018-05-02T08:31:10.133Z,22912.00
2018-05-02T08:33:03.010Z,22304.00
2018-05-02T08:34:02.988Z,23424.00
2018-05-02T08:35:55.865Z,21344.00
2018-05-02T08:36:55.836Z,22784.00
2018-05-02T08:38:48.766Z,20960.00
2018-05-02T08:39:48.687Z,20768.00
2018-05-02T08:41:41.558Z,21248.00
2018-05-02T08:42:41.539Z,20864.00
2018-05-02T08:44:34.415Z,19904.00
2018-05-02T08:45:34.390Z,19808.00
2018-05-02T08:47:27.255Z,21728.00
2018-05-02T08:48:27.240Z,20704.00
2018-05-02T08:50:20.114Z,19488.00
2018-05-02T08:51:20.094Z,19840.00
2018-05-02T08:53:12.959Z,22240.00
2018-05-02T08:54:12.943Z,22528.00
2018-05-02T08:56:05.821Z,21152.00
2018-05-02T08:57:05.796Z,22624.00
2018-05-02T08:58:58.662Z,23872.00
2018-05-02T08:59:58.653Z,23712.00
2018-05-02T09:01:51.562Z,22336.00
2018-05-02T09:02:51.503Z,21344.00
2018-05-02T09:04:44.365Z,20864.00
2018-05-02T09:05:44.351Z,20800.00
2018-05-02T09:07:37.223Z,20992.00
2018-05-02T09:08:37.201Z,21408.00
2018-05-02T09:10:30.071Z,22048.00
2018-05-02T09:11:30.054Z,22272.00
2018-05-02T09:13:22.929Z,20864.00
2018-05-02T09:14:22.911Z,19936.00
2018-05-02T09:16:15.768Z,19136.00
2018-05-02T09:17:15.755Z,19200.00
2018-05-02T09:19:08.632Z,19232.00
2018-05-02T09:20:08.603Z,18784.00
2018-05-02T09:22:01.471Z,18784.00
2018-05-02T09:23:01.458Z,18880.00
2018-05-02T09:24:54.405Z,19232.00
2018-05-02T09:25:54.313Z,19520.00
2018-05-02T09:27:47.173Z,19584.00
2018-05-02T09:28:47.157Z,19136.00
2018-05-02T09:30:40.037Z,18016.00
2018-05-02T09:31:40.010Z,17280.00
2018-05-02T09:33:32.877Z,16140.00
2018-05-02T09:34:32.864Z,15956.00
2018-05-02T09:36:25.737Z,15040.00
2018-05-02T09:37:25.713Z,14168.00
2018-05-02T09:39:18.580Z,13468.00
2018-05-02T09:40:18.565Z,13328.00
2018-05-02T09:42:11.442Z,12372.00
2018-05-02T09:43:11.412Z,11808.00
2018-05-02T09:45:04.276Z,10820.00
2018-05-02T09:46:04.260Z,10608.00
2018-05-02T09:47:57.137Z,10944.00
2018-05-02T09:48:57.111Z,11436.00
2018-05-02T09:50:49.977Z,11304.00
2018-05-02T09:51:49.960Z,11408.00
2018-05-02T09:53:42.833Z,12556.00
2018-05-02T09:54:42.807Z,13156.00
2018-05-02T09:56:35.671Z,13468.00
2018-05-02T09:57:35.657Z,13456.00
2018-05-02T09:59:28.537Z,12884.00
2018-05-02T10:00:28.504Z,12440.00
2018-05-02T10:02:21.365Z,12116.00
2018-05-02T10:03:21.349Z,12216.00
2018-05-02T10:05:14.221Z,12052.00
2018-05-02T10:06:14.194Z,11696.00
2018-05-02T10:08:07.056Z,11276.00
2018-05-02T10:09:07.038Z,11292.00
2018-05-02T10:10:59.908Z,10972.00
2018-05-02T10:11:59.889Z,10604.00
2018-05-02T10:13:52.748Z,10252.00
2018-05-02T10:14:52.731Z,9984.00
2018-05-02T10:16:45.603Z,9592.00
2018-05-02T10:17:45.578Z,9808.00
2018-05-02T10:19:38.435Z,10012.00
2018-05-02T10:20:38.423Z,10260.00
2018-05-02T10:22:31.293Z,9592.00
2018-05-02T10:23:31.274Z,9344.00
2018-05-02T10:25:24.129Z,9236.00
2018-05-02T10:26:24.138Z,9272.00
2018-05-02T10:28:17.004Z,9772.00
2018-05-02T10:29:16.983Z,10004.00
2018-05-02T10:31:09.842Z,10356.00
2018-05-02T10:32:09.827Z,10836.00
2018-05-02T10:34:02.701Z,12744.00
2018-05-02T10:35:02.672Z,13900.00
2018-05-02T10:36:55.565Z,15416.00
2018-05-02T10:37:55.520Z,15744.00
2018-05-02T10:39:48.390Z,16252.00
2018-05-02T10:40:48.361Z,16896.00
2018-05-02T10:42:41.296Z,18944.00
2018-05-02T10:43:41.211Z,19392.00
2018-05-02T10:45:34.080Z,21344.00
2018-05-02T10:46:34.057Z,22240.00
2018-05-02T10:48:26.920Z,23072.00
2018-05-02T10:49:26.903Z,23200.00
2018-05-02T10:51:19.781Z,24416.00
2018-05-02T10:52:19.757Z,25248.00
2018-05-02T10:54:12.617Z,24000.00
2018-05-02T10:55:12.605Z,24736.00
2018-05-02T10:57:05.481Z,24384.00
2018-05-02T10:58:05.461Z,24256.00
2018-05-02T10:59:58.321Z,24832.00
2018-05-02T11:00:58.307Z,24096.00
2018-05-02T11:02:51.191Z,23616.00
2018-05-02T11:03:51.165Z,23200.00
2018-05-02T11:05:44.033Z,22176.00
2018-05-02T11:06:44.020Z,21312.00
2018-05-02T11:08:36.896Z,19840.00
2018-05-02T11:09:36.878Z,19904.00
2018-05-02T11:11:29.743Z,20736.00
2018-05-02T11:12:29.730Z,21824.00
2018-05-02T11:14:22.606Z,24000.00
2018-05-02T11:15:22.586Z,25120.00
2018-05-02T11:17:15.454Z,27040.00
2018-05-02T11:18:15.441Z,27392.00
2018-05-02T11:20:08.320Z,26048.00
2018-05-02T11:21:08.297Z,25024.00
2018-05-02T11:23:01.162Z,24096.00
2018-05-02T11:24:01.152Z,23616.00
2018-05-02T11:25:54.035Z,23040.00
2018-05-02T11:26:54.004Z,22816.00
2018-05-02T11:28:46.873Z,22912.00
2018-05-02T11:29:46.864Z,23200.00
2018-05-02T11:31:39.739Z,23584.00
2018-05-02T11:32:39.718Z,22976.00
2018-05-02T11:34:32.590Z,22688.00
2018-05-02T11:35:32.576Z,22656.00
2018-05-02T11:37:25.472Z,23360.00
2018-05-02T11:38:25.437Z,24288.00
2018-05-02T11:40:18.312Z,25248.00
2018-05-02T11:41:18.299Z,25280.00
2018-05-02T11:43:11.174Z,25856.00
2018-05-02T11:44:11.150Z,26592.00
2018-05-02T11:46:04.038Z,27264.00
2018-05-02T11:47:04.021Z,27072.00
2018-05-02T11:48:56.883Z,26688.00
2018-05-02T11:49:56.862Z,25920.00
2018-05-02T11:51:49.739Z,24320.00
2018-05-02T11:52:49.726Z,23744.00
2018-05-02T11:54:42.609Z,22336.00
2018-05-02T11:55:42.591Z,22144.00
2018-05-02T11:57:35.463Z,21920.00
2018-05-02T11:58:35.447Z,21568.00
2018-05-02T12:00:28.349Z,22176.00
2018-05-02T12:01:28.303Z,22944.00
2018-05-02T12:03:21.687Z,23968.00
2018-05-02T12:04:21.162Z,23808.00
2018-05-02T12:06:14.035Z,23232.00
2018-05-02T12:07:14.018Z,22592.00
2018-05-02T12:09:06.887Z,21568.00
2018-05-02T12:10:06.881Z,21120.00
2018-05-02T12:11:59.758Z,20960.00
2018-05-02T12:12:59.736Z,21024.00
2018-05-02T12:14:52.605Z,21152.00
2018-05-02T12:15:52.592Z,21536.00
2018-05-02T12:17:45.471Z,21728.00
2018-05-02T12:18:45.448Z,21728.00
2018-05-02T12:20:38.319Z,21312.00
2018-05-02T12:21:38.308Z,21280.00
2018-05-02T12:23:31.190Z,21504.00
2018-05-02T12:24:31.164Z,21568.00
2018-05-02T12:26:24.037Z,21632.00
2018-05-02T12:27:24.023Z,21728.00
2018-05-02T12:29:16.909Z,22880.00
2018-05-02T12:30:16.886Z,24800.00
2018-05-02T12:32:09.762Z,25504.00
2018-05-02T12:33:09.806Z,24384.00
2018-05-02T12:35:02.624Z,20288.00
2018-05-02T12:36:02.605Z,19776.00
2018-05-02T12:37:55.473Z,17920.00
2018-05-02T12:38:55.463Z,17144.00
2018-05-02T12:40:48.382Z,18304.00
2018-05-02T12:41:48.324Z,19456.00
2018-05-02T12:43:41.194Z,20512.00
2018-05-02T12:44:41.183Z,19104.00
2018-05-02T12:46:34.081Z,16992.00
2018-05-02T12:47:34.044Z,16152.00
2018-05-02T12:49:26.910Z,15708.00
2018-05-02T12:50:26.899Z,15672.00
2018-05-02T12:52:19.780Z,15212.00
2018-05-02T12:53:19.758Z,15168.00
2018-05-02T12:55:12.631Z,14916.00
2018-05-02T12:56:12.728Z,14972.00
2018-05-02T12:58:05.497Z,15560.00
2018-05-02T12:59:05.472Z,16252.00
2018-05-02T13:00:58.343Z,16152.00
2018-05-02T13:01:58.334Z,15824.00
2018-05-02T13:03:51.212Z,15676.00
2018-05-02T13:04:51.188Z,16280.00
2018-05-02T13:06:44.067Z,18208.00
2018-05-02T13:07:44.053Z,17888.00
2018-05-02T13:09:36.929Z,15844.00
2018-05-02T13:10:36.912Z,16012.00
2018-05-02T13:12:29.782Z,15968.00
2018-05-02T13:13:29.767Z,18976.00
2018-05-02T13:15:22.655Z,17172.00
2018-05-02T13:16:22.627Z,18016.00
2018-05-02T13:18:15.500Z,18432.00
2018-05-02T13:19:15.489Z,17984.00
2018-05-02T13:21:08.371Z,19232.00
2018-05-02T13:22:08.347Z,19328.00
2018-05-02T13:24:02.213Z,19712.00
2018-05-02T13:25:02.202Z,20512.00
2018-05-02T13:26:55.085Z,18848.00
2018-05-02T13:27:55.067Z,18656.00
2018-05-02T13:29:47.939Z,21600.00
2018-05-02T13:30:47.928Z,21952.00
2018-05-02T13:32:40.811Z,20576.00
2018-05-02T13:33:40.785Z,20512.00
2018-05-02T13:35:33.662Z,18944.00
2018-05-02T13:36:33.651Z,19200.00
2018-05-02T13:38:26.531Z,18848.00
2018-05-02T13:39:26.557Z,18464.00
2018-05-02T13:41:19.384Z,18784.00
2018-05-02T13:42:19.372Z,18112.00
2018-05-02T13:44:12.252Z,18432.00
2018-05-02T13:45:12.237Z,19584.00
2018-05-02T13:47:05.112Z,18912.00
2018-05-02T13:48:05.097Z,18016.00
2018-05-02T13:49:57.984Z,17920.00
2018-05-02T13:50:57.961Z,17856.00
2018-05-02T13:52:50.829Z,18336.00
2018-05-02T13:53:50.819Z,18112.00
2018-05-02T13:55:43.697Z,17504.00
2018-05-02T13:56:43.679Z,17984.00
2018-05-02T13:58:36.550Z,18144.00
2018-05-02T13:59:36.537Z,18432.00
2018-05-02T14:01:29.421Z,18176.00
2018-05-02T14:02:29.399Z,18176.00
2018-05-02T14:04:22.268Z,19168.00
2018-05-02T14:05:22.257Z,18720.00
2018-05-02T14:07:15.141Z,18144.00
2018-05-02T14:08:15.192Z,17952.00
2018-05-02T14:10:07.985Z,17984.00
2018-05-02T14:11:07.975Z,18304.00
2018-05-02T14:13:00.853Z,19648.00
2018-05-02T14:14:00.833Z,20800.00
2018-05-02T14:15:53.708Z,20480.00
2018-05-02T14:16:53.694Z,18496.00
2018-05-02T14:18:46.574Z,16832.00
2018-05-02T14:19:46.549Z,16832.00
2018-05-02T14:21:39.420Z,18144.00
2018-05-02T14:22:39.410Z,19040.00
2018-05-02T14:24:32.297Z,18656.00
2018-05-02T14:25:32.273Z,17824.00
2018-05-02T14:27:25.144Z,18336.00
2018-05-02T14:28:25.132Z,17536.00
2018-05-02T14:30:18.011Z,17152.00
2018-05-02T14:31:17.997Z,16124.00
2018-05-02T14:33:10.868Z,15856.00
2018-05-02T14:34:10.855Z,15260.00
2018-05-02T14:36:03.745Z,14752.00
2018-05-02T14:37:03.716Z,14888.00
2018-05-02T14:38:56.589Z,15024.00
2018-05-02T14:39:56.578Z,14840.00
2018-05-02T14:41:49.460Z,14688.00
2018-05-02T14:42:49.434Z,14800.00
2018-05-02T14:44:42.307Z,14588.00
2018-05-02T14:45:42.305Z,14104.00
2018-05-02T14:47:35.173Z,13680.00
2018-05-02T14:48:35.151Z,13548.00
2018-05-02T14:50:28.022Z,12236.00
2018-05-02T14:51:28.009Z,11712.00
2018-05-02T14:53:20.889Z,12096.00
2018-05-02T14:54:20.868Z,12096.00
2018-05-02T14:56:13.770Z,12100.00
2018-05-02T14:57:13.723Z,12048.00
2018-05-02T14:59:06.611Z,11788.00
2018-05-02T15:00:06.589Z,11484.00
2018-05-02T15:01:59.490Z,11120.00
2018-05-02T15:02:59.441Z,11072.00
2018-05-02T15:04:52.319Z,10680.00
2018-05-02T15:05:52.298Z,10712.00
2018-05-02T15:07:45.163Z,10904.00
2018-05-02T15:08:45.149Z,11464.00
2018-05-02T15:10:38.030Z,12100.00
2018-05-02T15:11:38.005Z,11884.00
2018-05-02T15:13:30.896Z,11064.00
2018-05-02T15:14:30.888Z,11004.00
2018-05-02T15:16:23.755Z,10764.00
2018-05-02T15:17:23.736Z,10640.00
2018-05-02T15:19:16.601Z,10744.00
2018-05-02T15:20:16.588Z,10932.00
2018-05-02T15:22:09.468Z,11512.00
2018-05-02T15:23:09.442Z,11664.00
2018-05-02T15:25:02.329Z,11568.00
2018-05-02T15:26:02.293Z,11464.00
2018-05-02T15:27:55.171Z,11608.00
2018-05-02T15:28:55.148Z,11696.00
2018-05-02T15:30:48.012Z,11520.00
2018-05-02T15:31:48.002Z,11180.00
2018-05-02T15:33:40.977Z,10372.00
2018-05-02T15:34:40.860Z,9840.00
2018-05-02T15:36:33.723Z,9156.00
2018-05-02T15:37:33.715Z,9072.00
2018-05-02T15:39:26.600Z,9196.00
2018-05-02T15:40:26.680Z,9304.00
2018-05-02T15:42:19.443Z,9324.00
2018-05-02T15:43:19.430Z,9256.00
2018-05-02T15:45:12.306Z,8968.00
2018-05-02T15:46:12.289Z,8772.00
2018-05-02T15:48:05.175Z,8304.00
2018-05-02T15:49:05.162Z,8128.00
2018-05-02T15:50:58.037Z,7984.00
2018-05-02T15:51:58.041Z,8000.00
2018-05-02T15:53:50.892Z,8200.00
2018-05-02T15:54:50.876Z,8224.00
2018-05-02T15:56:43.750Z,7684.00
2018-05-02T15:57:43.790Z,7252.00
2018-05-02T15:59:36.590Z,6588.00
2018-05-02T16:00:36.575Z,6420.00
2018-05-02T16:02:29.453Z,6308.00
2018-05-02T16:03:29.429Z,6272.00
2018-05-02T16:05:22.323Z,6104.00
2018-05-02T16:06:22.293Z,5972.00
2018-05-02T16:08:15.167Z,5592.00
2018-05-02T16:09:15.144Z,5344.00
2018-05-02T16:11:08.012Z,4928.00
2018-05-02T16:12:08.003Z,4836.00
2018-05-02T16:14:00.875Z,4836.00
2018-05-02T16:15:00.848Z,4840.00
2018-05-02T16:16:53.712Z,4828.00
2018-05-02T16:17:53.700Z,4836.00
2018-05-02T16:19:46.621Z,4844.00
2018-05-02T16:20:46.583Z,4832.00
2018-05-02T16:22:39.447Z,4792.00
2018-05-02T16:23:39.431Z,4824.00
2018-05-02T16:25:32.309Z,5008.00
2018-05-02T16:26:32.278Z,5148.00
2018-05-02T16:28:25.139Z,5376.00
2018-05-02T16:29:25.124Z,5472.00
2018-05-02T16:31:18.002Z,5592.00
2018-05-02T16:32:17.974Z,5700.00
2018-05-02T16:34:10.841Z,5948.00
2018-05-02T16:35:10.826Z,6048.00
2018-05-02T16:37:03.701Z,6120.00
2018-05-02T16:38:03.677Z,6036.00
2018-05-02T16:39:56.533Z,5820.00
2018-05-02T16:40:56.521Z,5720.00
2018-05-02T16:42:49.397Z,5504.00
2018-05-02T16:43:49.367Z,5380.00
2018-05-02T16:45:42.233Z,5148.00
2018-05-02T16:46:42.216Z,5028.00
2018-05-02T16:48:35.090Z,4780.00
2018-05-02T16:49:35.064Z,4668.00
2018-05-02T16:51:27.926Z,4520.00
2018-05-02T16:52:27.912Z,4468.00
2018-05-02T16:54:20.858Z,4392.00
2018-05-02T16:55:20.761Z,4340.00
2018-05-02T16:57:13.621Z,4268.00
2018-05-02T16:58:13.610Z,4256.00
2018-05-02T17:00:06.482Z,4248.00
2018-05-02T17:01:06.455Z,4256.00
2018-05-02T17:02:59.317Z,4272.00
2018-05-02T17:03:59.303Z,4272.00
2018-05-02T17:05:52.179Z,4220.00
2018-05-02T17:06:52.151Z,4160.00
2018-05-02T17:08:45.017Z,4012.00
2018-05-02T17:09:44.997Z,3932.00
2018-05-02T17:11:37.871Z,3768.00
2018-05-02T17:12:37.845Z,3684.00
2018-05-02T17:14:30.707Z,3536.00
2018-05-02T17:15:30.692Z,3472.00
2018-05-02T17:17:23.565Z,3376.00
2018-05-02T17:18:23.538Z,3340.00
2018-05-02T17:20:16.397Z,3276.00
2018-05-02T17:21:16.383Z,3240.00
2018-05-02T17:23:09.257Z,3152.00
2018-05-02T17:24:09.226Z,3084.00
2018-05-02T17:26:02.090Z,2948.00
2018-05-02T17:27:02.073Z,2876.00
2018-05-02T17:28:54.941Z,2768.00
2018-05-02T17:29:54.918Z,2716.00
2018-05-02T17:31:47.779Z,2608.00